Time;durP1;ratioP1;P1;durP2;ratioP2;P2;SDS_P1;SDS_P2;PMS_P1;PMS_P2;Temp;Humidity;BMP_temperature;BMP_pressure;BME280_temperature;BME280_humidity;BME280_pressure;Samples;Min_cycle;Max_cycle;Signal;HPM_P1;HPM_P2
2024/02/06 00:01:20;;;;;;;12.75;7.45;;;8.60;99.90;;;;;;5077431;28;20051;-52
2024/02/06 00:03:46;;;;;;;18.13;10.07;;;8.50;99.90;;;;;;5068334;28;20028;-53
2024/02/06 00:06:11;;;;;;;20.90;9.02;;;8.50;99.90;;;;;;5069757;28;20034;-52
2024/02/06 00:08:37;;;;;;;19.67;9.00;;;8.50;99.90;;;;;;5069793;28;20374;-52
2024/02/06 00:11:03;;;;;;;18.52;9.70;;;8.50;99.90;;;;;;5069630;28;20387;-50
2024/02/06 00:13:28;;;;;;;15.45;9.00;;;8.40;99.90;;;;;;5066722;28;20100;-53
2024/02/06 00:15:54;;;;;;;13.70;9.38;;;8.40;99.90;;;;;;5069326;28;20044;-52
2024/02/06 00:18:19;;;;;;;21.05;9.88;;;8.40;99.90;;;;;;5072213;28;20030;-54
2024/02/06 00:20:45;;;;;;;19.02;10.27;;;8.40;99.90;;;;;;5079990;28;20104;-54
2024/02/06 00:23:11;;;;;;;17.60;10.63;;;8.40;99.90;;;;;;5068960;28;20048;-52
2024/02/06 00:25:36;;;;;;;17.23;10.45;;;8.30;99.90;;;;;;5067605;28;20412;-53
2024/02/06 00:28:02;;;;;;;19.30;10.57;;;8.40;99.90;;;;;;5072505;28;20653;-53
2024/02/06 00:30:27;;;;;;;20.95;11.80;;;8.30;99.90;;;;;;5069340;28;20047;-53
2024/02/06 00:32:53;;;;;;;19.15;10.93;;;8.30;99.90;;;;;;5076086;28;20043;-54
2024/02/06 00:35:18;;;;;;;18.17;10.80;;;8.30;99.90;;;;;;5074866;28;20081;-54
2024/02/06 00:37:44;;;;;;;16.83;10.15;;;8.30;99.90;;;;;;5069539;28;20327;-54
2024/02/06 00:40:11;;;;;;;19.05;11.07;;;8.30;99.90;;;;;;5075937;28;20033;-53
2024/02/06 00:42:36;;;;;;;20.85;10.82;;;8.30;99.90;;;;;;5068936;28;20102;-55
2024/02/06 00:45:03;;;;;;;24.33;12.05;;;8.30;99.90;;;;;;5081520;28;20024;-54
2024/02/06 00:47:28;;;;;;;19.60;10.77;;;8.30;99.90;;;;;;5069229;28;20103;-54
2024/02/06 00:49:54;;;;;;;22.75;12.27;;;8.30;99.90;;;;;;5068818;28;20016;-51
2024/02/06 00:52:21;;;;;;;20.70;11.40;;;8.30;99.90;;;;;;5068218;28;20415;-51
2024/02/06 00:54:46;;;;;;;20.00;10.43;;;8.20;99.90;;;;;;5075947;28;20025;-54
2024/02/06 00:57:12;;;;;;;18.70;10.82;;;8.20;99.90;;;;;;5075069;28;20181;-54
2024/02/06 00:59:37;;;;;;;22.23;10.88;;;8.20;99.90;;;;;;5067071;28;20121;-53
2024/02/06 01:02:03;;;;;;;23.00;11.20;;;8.20;99.90;;;;;;5075740;28;20030;-54
2024/02/06 01:04:28;;;;;;;20.58;11.52;;;8.30;99.90;;;;;;5074750;28;20052;-53
2024/02/06 01:06:54;;;;;;;22.13;11.02;;;8.30;99.90;;;;;;5068760;28;20033;-54
2024/02/06 01:09:19;;;;;;;22.70;11.05;;;8.30;99.90;;;;;;5068247;28;20344;-55
2024/02/06 01:11:45;;;;;;;17.80;10.63;;;8.30;99.90;;;;;;5068832;28;20074;-54
2024/02/06 01:14:10;;;;;;;18.50;9.63;;;8.40;99.90;;;;;;5066200;28;20349;-55
2024/02/06 01:16:36;;;;;;;16.83;9.40;;;8.40;99.90;;;;;;5071659;28;20024;-56
2024/02/06 01:19:01;;;;;;;23.42;12.07;;;8.40;99.90;;;;;;5083032;28;20317;-55
2024/02/06 01:21:27;;;;;;;14.05;9.30;;;8.50;99.90;;;;;;5075340;28;20039;-54
2024/02/06 01:23:52;;;;;;;17.10;9.57;;;8.40;99.90;;;;;;5067943;28;20068;-55
2024/02/06 01:26:18;;;;;;;17.88;10.00;;;8.40;99.90;;;;;;5067786;28;20455;-55
2024/02/06 01:28:45;;;;;;;16.48;10.23;;;8.40;99.90;;;;;;5068133;28;20070;-55
2024/02/06 01:31:12;;;;;;;19.02;9.73;;;8.40;99.90;;;;;;5067761;28;20488;-55
2024/02/06 01:33:38;;;;;;;24.20;11.02;;;8.30;99.90;;;;;;5068059;28;20095;-54
2024/02/06 01:36:04;;;;;;;21.10;10.60;;;8.30;99.90;;;;;;5069821;28;20116;-54
2024/02/06 01:38:30;;;;;;;19.17;10.10;;;8.30;99.90;;;;;;5067787;28;20180;-54
2024/02/06 01:40:56;;;;;;;18.40;11.30;;;8.20;99.90;;;;;;5067569;28;20556;-55
2024/02/06 01:43:21;;;;;;;23.50;11.40;;;8.20;99.90;;;;;;5073700;28;20165;-53
2024/02/06 01:45:51;;;;;;;17.00;9.85;;;8.20;99.90;;;;;;5066243;28;20112;-54
2024/02/06 01:48:17;;;;;;;23.70;10.20;;;8.20;99.90;;;;;;5067840;28;20161;-55
2024/02/06 01:50:43;;;;;;;16.42;8.15;;;8.20;99.90;;;;;;5071893;28;20107;-55
2024/02/06 01:53:08;;;;;;;15.38;8.23;;;8.20;99.90;;;;;;5067313;28;20033;-54
2024/02/06 01:55:34;;;;;;;13.10;8.40;;;8.20;99.90;;;;;;5066028;28;20021;-55
2024/02/06 01:58:01;;;;;;;12.30;6.85;;;8.20;99.90;;;;;;5067555;28;20074;-53
2024/02/06 02:00:26;;;;;;;12.63;7.68;;;8.20;99.90;;;;;;5067420;28;20082;-54
2024/02/06 02:02:53;;;;;;;13.48;6.28;;;8.20;99.90;;;;;;5067092;28;20028;-55
2024/02/06 02:05:19;;;;;;;12.18;6.68;;;8.30;99.90;;;;;;5073280;28;20025;-55
2024/02/06 02:07:45;;;;;;;15.88;7.38;;;8.30;99.90;;;;;;5071809;28;20020;-55
2024/02/06 02:10:11;;;;;;;9.88;6.07;;;8.30;99.90;;;;;;5072548;28;20044;-54
2024/02/06 02:12:38;;;;;;;10.52;5.57;;;8.30;99.90;;;;;;5067307;28;20017;-54
2024/02/06 02:15:04;;;;;;;10.95;7.45;;;8.40;99.90;;;;;;5067009;28;20174;-56
2024/02/06 02:17:30;;;;;;;10.27;6.28;;;8.40;99.90;;;;;;5072882;28;20074;-54
2024/02/06 02:19:56;;;;;;;8.73;6.20;;;8.40;99.90;;;;;;5072948;28;20455;-54
2024/02/06 02:22:21;;;;;;;10.70;6.15;;;8.40;99.90;;;;;;5072371;28;20052;-55
2024/02/06 02:24:49;;;;;;;13.18;6.15;;;8.40;99.90;;;;;;5066815;28;20099;-55
2024/02/06 02:27:14;;;;;;;8.95;6.38;;;8.40;99.90;;;;;;5070217;28;20088;-55
2024/02/06 02:29:41;;;;;;;11.13;6.13;;;8.50;99.90;;;;;;5065403;28;20027;-54
2024/02/06 02:32:08;;;;;;;11.45;6.25;;;8.50;99.90;;;;;;5066376;28;20056;-56
2024/02/06 02:34:35;;;;;;;12.75;6.10;;;8.50;99.90;;;;;;5072481;28;20017;-54
2024/02/06 02:37:00;;;;;;;11.77;6.32;;;8.50;99.90;;;;;;5066753;28;20027;-54
2024/02/06 02:39:26;;;;;;;12.40;6.00;;;8.50;99.90;;;;;;5074822;28;20032;-55
2024/02/06 02:41:52;;;;;;;11.43;6.60;;;8.50;99.90;;;;;;5075407;28;20028;-55
2024/02/06 02:44:18;;;;;;;7.60;5.97;;;8.50;99.90;;;;;;5066422;28;20085;-54
2024/02/06 02:46:44;;;;;;;8.70;6.03;;;8.50;99.90;;;;;;5066660;28;20033;-55
2024/02/06 02:49:10;;;;;;;10.98;6.88;;;8.50;99.90;;;;;;5066638;28;20058;-54
2024/02/06 02:51:35;;;;;;;11.63;6.63;;;8.50;99.90;;;;;;5075995;28;20107;-55
2024/02/06 02:54:01;;;;;;;10.90;6.47;;;8.50;99.90;;;;;;5077543;28;20028;-54
2024/02/06 02:56:26;;;;;;;15.55;6.70;;;8.50;99.90;;;;;;5066717;28;20036;-54
2024/02/06 02:58:52;;;;;;;12.77;7.78;;;8.50;99.90;;;;;;5066529;28;20482;-55
2024/02/06 03:01:18;;;;;;;17.45;7.75;;;8.60;99.90;;;;;;5066668;28;20017;-56
2024/02/06 03:03:43;;;;;;;12.55;7.85;;;8.60;99.90;;;;;;5064846;28;20024;-55
2024/02/06 03:06:16;;;;;;;15.55;7.70;;;8.60;99.90;;;;;;5075749;28;20101;-56
2024/02/06 03:08:42;;;;;;;10.35;8.40;;;8.60;99.90;;;;;;5065218;28;20482;-56
2024/02/06 03:11:07;;;;;;;12.38;8.18;;;8.60;99.90;;;;;;5066204;28;20086;-56
2024/02/06 03:13:33;;;;;;;15.13;8.38;;;8.60;99.90;;;;;;5067912;28;20100;-55
2024/02/06 03:15:58;;;;;;;17.23;9.10;;;8.60;99.90;;;;;;5073752;28;20024;-55
2024/02/06 03:18:24;;;;;;;20.98;9.18;;;8.60;99.90;;;;;;5064985;28;20017;-55
2024/02/06 03:20:49;;;;;;;12.75;8.52;;;8.70;99.90;;;;;;5068237;28;20021;-55
2024/02/06 03:23:15;;;;;;;14.82;9.02;;;8.60;99.90;;;;;;5075920;28;20088;-54
2024/02/06 03:25:41;;;;;;;21.17;8.63;;;8.60;99.90;;;;;;5074839;28;20087;-55
2024/02/06 03:28:06;;;;;;;16.92;8.88;;;8.70;99.90;;;;;;5070332;28;20086;-54
2024/02/06 03:30:32;;;;;;;17.25;8.88;;;8.70;99.90;;;;;;5067075;28;20088;-54
2024/02/06 03:32:57;;;;;;;13.13;8.18;;;8.70;99.90;;;;;;5067693;28;20074;-55
2024/02/06 03:35:23;;;;;;;17.77;9.75;;;8.70;99.90;;;;;;5069499;28;20032;-55
2024/02/06 03:37:49;;;;;;;15.13;8.23;;;8.80;99.90;;;;;;5067755;28;20035;-56
2024/02/06 03:40:14;;;;;;;11.65;8.38;;;8.80;99.90;;;;;;5070050;28;20032;-56
2024/02/06 03:42:40;;;;;;;11.60;8.45;;;8.90;99.90;;;;;;5073717;28;20381;-55
2024/02/06 03:45:06;;;;;;;18.38;8.88;;;8.80;99.90;;;;;;5069046;28;20025;-54
2024/02/06 03:47:32;;;;;;;14.10;8.25;;;8.90;99.90;;;;;;5067457;28;20120;-55
2024/02/06 03:49:57;;;;;;;17.05;9.18;;;8.90;99.90;;;;;;5069551;28;20105;-55
2024/02/06 03:52:23;;;;;;;14.45;8.30;;;8.90;99.90;;;;;;5068929;28;20017;-55
2024/02/06 03:54:48;;;;;;;18.83;9.07;;;9.00;99.90;;;;;;5069942;28;20020;-56
2024/02/06 03:57:14;;;;;;;17.30;8.13;;;8.90;99.90;;;;;;5069112;28;20243;-56
2024/02/06 03:59:40;;;;;;;20.83;8.75;;;9.00;99.90;;;;;;5073476;28;20020;-55
2024/02/06 04:02:05;;;;;;;19.73;9.00;;;8.90;99.90;;;;;;5069299;28;20112;-56
2024/02/06 04:04:31;;;;;;;16.17;8.57;;;8.90;99.90;;;;;;5069343;28;20027;-55
2024/02/06 04:06:56;;;;;;;13.95;8.50;;;8.90;99.90;;;;;;5075105;28;20028;-53
2024/02/06 04:09:22;;;;;;;15.15;8.65;;;8.90;99.90;;;;;;5074371;28;20032;-53
2024/02/06 04:11:48;;;;;;;13.60;8.38;;;8.90;99.90;;;;;;5068212;28;20023;-55
2024/02/06 04:14:13;;;;;;;16.30;9.00;;;8.90;99.90;;;;;;5072457;28;20482;-55
2024/02/06 04:16:39;;;;;;;14.63;7.93;;;8.90;99.90;;;;;;5072566;28;20028;-55
2024/02/06 04:19:04;;;;;;;15.30;7.45;;;8.90;99.90;;;;;;5076020;28;20205;-54
2024/02/06 04:21:30;;;;;;;12.55;8.05;;;8.90;99.90;;;;;;5077095;28;20043;-54
2024/02/06 04:23:56;;;;;;;10.48;7.60;;;8.90;99.90;;;;;;5073669;28;20028;-54
2024/02/06 04:26:22;;;;;;;12.25;7.13;;;8.90;99.90;;;;;;5068352;28;20078;-54
2024/02/06 04:28:47;;;;;;;12.90;7.47;;;8.90;99.90;;;;;;5069265;28;20021;-52
2024/02/06 04:31:13;;;;;;;13.40;7.78;;;8.90;99.90;;;;;;5068009;28;20082;-54
2024/02/06 04:33:39;;;;;;;15.77;7.55;;;8.90;99.90;;;;;;5068387;28;20096;-54
2024/02/06 04:36:05;;;;;;;12.77;6.85;;;8.90;99.90;;;;;;5069882;28;20130;-54
2024/02/06 04:38:31;;;;;;;16.75;8.15;;;8.90;99.90;;;;;;5066881;28;20047;-53
2024/02/06 04:40:57;;;;;;;14.85;8.07;;;8.90;99.90;;;;;;5069022;28;20016;-53
2024/02/06 04:43:23;;;;;;;10.80;7.43;;;8.90;99.90;;;;;;5068663;28;20071;-52
2024/02/06 04:45:48;;;;;;;14.65;6.82;;;8.90;99.90;;;;;;5069318;28;20513;-54
2024/02/06 04:48:14;;;;;;;12.70;7.57;;;8.90;99.90;;;;;;5065591;28;20094;-54
2024/02/06 04:50:40;;;;;;;9.60;6.95;;;9.00;99.90;;;;;;5068846;28;20024;-52
2024/02/06 04:53:05;;;;;;;13.80;7.57;;;8.90;99.90;;;;;;5077993;28;20096;-53
2024/02/06 04:55:31;;;;;;;9.40;7.03;;;9.00;99.90;;;;;;5067960;28;20027;-54
2024/02/06 04:58:00;;;;;;;13.55;7.80;;;9.00;99.90;;;;;;5073727;28;20089;-54
2024/02/06 05:00:26;;;;;;;15.73;7.72;;;9.00;99.90;;;;;;5069123;28;20033;-53
2024/02/06 05:02:51;;;;;;;14.75;7.50;;;9.00;99.90;;;;;;5068677;28;20086;-53
2024/02/06 05:05:17;;;;;;;14.30;7.25;;;9.00;99.90;;;;;;5068747;28;20441;-51
2024/02/06 05:07:43;;;;;;;10.18;6.22;;;9.00;99.90;;;;;;5067252;28;20116;-53
2024/02/06 05:10:11;;;;;;;10.10;6.63;;;9.00;99.90;;;;;;5067037;28;20594;-54
2024/02/06 05:12:37;;;;;;;12.27;6.03;;;9.00;99.90;;;;;;5067943;28;20150;-53
2024/02/06 05:15:04;;;;;;;15.60;6.78;;;9.00;99.90;;;;;;5068546;28;20048;-54
2024/02/06 05:17:30;;;;;;;14.52;6.90;;;9.00;99.90;;;;;;5072547;28;20035;-54
2024/02/06 05:19:56;;;;;;;11.05;6.40;;;9.00;99.90;;;;;;5068459;28;20024;-54
2024/02/06 05:22:22;;;;;;;12.43;6.88;;;9.00;99.90;;;;;;5072425;28;20032;-55
2024/02/06 05:24:48;;;;;;;9.27;6.30;;;9.00;99.90;;;;;;5072641;28;20112;-55
2024/02/06 05:27:14;;;;;;;10.13;6.85;;;9.00;99.90;;;;;;5072930;28;20020;-55
2024/02/06 05:29:40;;;;;;;8.68;5.05;;;9.00;99.90;;;;;;5070577;28;20118;-54
2024/02/06 05:32:05;;;;;;;10.05;6.07;;;9.00;99.90;;;;;;5067848;28;20104;-55
2024/02/06 05:34:31;;;;;;;9.48;6.18;;;9.00;99.90;;;;;;5067811;28;20036;-54
2024/02/06 05:36:57;;;;;;;19.60;6.20;;;9.00;99.90;;;;;;5068254;28;20309;-55
2024/02/06 05:39:23;;;;;;;11.95;6.45;;;9.00;99.90;;;;;;5068209;28;20115;-54
2024/02/06 05:41:48;;;;;;;8.57;6.10;;;9.00;99.90;;;;;;5075404;28;20205;-53
2024/02/06 05:44:14;;;;;;;9.13;5.53;;;9.00;99.90;;;;;;5063161;28;20028;-54
2024/02/06 05:46:40;;;;;;;13.65;6.15;;;9.00;99.90;;;;;;5066301;28;20056;-55
2024/02/06 05:49:05;;;;;;;9.68;5.53;;;9.00;99.90;;;;;;5071872;28;20036;-55
2024/02/06 05:51:32;;;;;;;10.90;5.80;;;9.10;99.90;;;;;;5066729;28;20070;-54
2024/02/06 05:53:57;;;;;;;8.52;6.68;;;9.00;99.90;;;;;;5066085;28;20513;-54
2024/02/06 05:56:23;;;;;;;11.02;5.47;;;9.10;99.90;;;;;;5071622;28;20177;-53
2024/02/06 05:58:49;;;;;;;11.82;6.72;;;9.10;99.90;;;;;;5071221;28;20048;-54
2024/02/06 06:01:14;;;;;;;8.18;5.70;;;9.10;99.90;;;;;;5066825;28;20468;-54
2024/02/06 06:03:40;;;;;;;11.02;5.45;;;9.10;99.90;;;;;;5069593;28;20028;-55
2024/02/06 06:06:06;;;;;;;9.00;5.63;;;9.10;99.90;;;;;;5076616;28;20056;-55
2024/02/06 06:08:32;;;;;;;8.90;6.25;;;9.10;99.90;;;;;;5070937;28;20052;-53
2024/02/06 06:10:57;;;;;;;9.85;6.20;;;9.10;99.90;;;;;;5071173;28;20492;-55
2024/02/06 06:13:26;;;;;;;8.43;6.25;;;9.20;99.90;;;;;;5067027;28;20023;-55
2024/02/06 06:15:52;;;;;;;9.07;5.10;;;9.20;99.90;;;;;;5066764;28;20028;-55
2024/02/06 06:18:17;;;;;;;9.10;5.80;;;9.20;99.90;;;;;;5066716;28;20038;-54
2024/02/06 06:20:43;;;;;;;10.02;5.97;;;9.10;99.90;;;;;;5066915;28;20729;-53
2024/02/06 06:23:09;;;;;;;10.73;6.10;;;9.20;99.90;;;;;;5065206;28;20036;-55
2024/02/06 06:25:35;;;;;;;8.75;6.43;;;9.20;99.90;;;;;;5066925;28;20039;-54
2024/02/06 06:28:02;;;;;;;17.60;7.05;;;9.20;99.90;;;;;;5067770;28;20375;-53
2024/02/06 06:30:28;;;;;;;10.90;5.75;;;9.20;99.90;;;;;;5070459;28;20128;-54
2024/02/06 06:32:54;;;;;;;8.70;6.30;;;9.20;99.90;;;;;;5065723;28;20052;-55
2024/02/06 06:35:19;;;;;;;14.32;6.40;;;9.20;99.90;;;;;;5065713;28;20105;-55
2024/02/06 06:37:45;;;;;;;10.85;6.22;;;9.20;99.90;;;;;;5065334;28;20025;-53
2024/02/06 06:40:12;;;;;;;11.35;6.05;;;9.20;99.90;;;;;;5070171;28;20116;-53
2024/02/06 06:42:37;;;;;;;11.50;6.55;;;9.20;99.90;;;;;;5065069;28;20017;-54
2024/02/06 06:45:03;;;;;;;12.57;6.35;;;9.20;99.90;;;;;;5066606;28;20040;-53
2024/02/06 06:47:29;;;;;;;13.93;6.20;;;9.20;99.90;;;;;;5064853;28;20093;-54
2024/02/06 06:49:55;;;;;;;8.75;6.18;;;9.30;99.90;;;;;;5065477;28;20040;-56
2024/02/06 06:52:21;;;;;;;12.27;6.03;;;9.30;99.90;;;;;;5064126;28;20485;-54
2024/02/06 06:54:47;;;;;;;9.18;5.45;;;9.30;99.90;;;;;;5065398;28;20069;-56
2024/02/06 06:57:12;;;;;;;15.95;6.15;;;9.40;99.90;;;;;;5066019;28;20021;-55
2024/02/06 06:59:39;;;;;;;8.63;5.88;;;9.40;99.90;;;;;;5065736;28;20028;-54
2024/02/06 07:02:05;;;;;;;13.02;6.05;;;9.40;99.90;;;;;;5069827;28;20032;-56
2024/02/06 07:04:30;;;;;;;11.27;5.57;;;9.40;99.90;;;;;;5066303;28;20099;-54
2024/02/06 07:06:56;;;;;;;15.25;6.78;;;9.40;99.90;;;;;;5066471;28;20162;-53
2024/02/06 07:09:24;;;;;;;14.35;6.55;;;9.40;99.90;;;;;;5065305;28;20054;-52
2024/02/06 07:11:49;;;;;;;10.63;6.25;;;9.40;99.90;;;;;;5073097;28;20502;-53
2024/02/06 07:14:15;;;;;;;11.10;6.25;;;9.40;99.90;;;;;;5068151;28;20044;-53
2024/02/06 07:16:41;;;;;;;14.52;6.78;;;9.50;99.90;;;;;;5067539;28;20021;-53
2024/02/06 07:19:07;;;;;;;11.63;6.15;;;9.50;99.90;;;;;;5068111;28;20043;-54
2024/02/06 07:21:33;;;;;;;13.57;5.88;;;9.50;99.90;;;;;;5066046;28;20525;-53
2024/02/06 07:23:59;;;;;;;13.40;5.45;;;9.50;99.90;;;;;;5065294;28;20500;-54
2024/02/06 07:26:24;;;;;;;13.65;5.78;;;9.50;99.90;;;;;;5064839;28;20064;-53
2024/02/06 07:28:50;;;;;;;11.10;5.85;;;9.60;99.90;;;;;;5065826;28;20114;-53
2024/02/06 07:31:17;;;;;;;12.63;5.22;;;9.60;99.90;;;;;;5066506;28;20335;-54
2024/02/06 07:33:43;;;;;;;20.55;6.45;;;9.60;99.90;;;;;;5066375;28;20021;-52
2024/02/06 07:36:09;;;;;;;14.57;5.15;;;9.60;99.90;;;;;;5066513;28;20445;-53
2024/02/06 07:38:35;;;;;;;11.13;5.05;;;9.60;99.90;;;;;;5069345;28;20024;-52
2024/02/06 07:41:02;;;;;;;7.97;5.00;;;9.60;99.90;;;;;;5066746;28;20029;-53
2024/02/06 07:43:28;;;;;;;8.25;4.80;;;9.60;99.90;;;;;;5069037;28;20037;-53
2024/02/06 07:45:54;;;;;;;10.00;4.88;;;9.60;99.90;;;;;;5066528;28;20052;-53
2024/02/06 07:48:21;;;;;;;9.35;5.25;;;9.60;99.90;;;;;;5066498;28;20021;-54
2024/02/06 07:50:48;;;;;;;7.30;4.95;;;9.60;99.90;;;;;;5068835;28;20505;-54
2024/02/06 07:53:14;;;;;;;9.88;6.15;;;9.60;99.90;;;;;;5064367;28;20446;-53
2024/02/06 07:55:40;;;;;;;7.45;4.85;;;9.60;99.90;;;;;;5071916;28;20111;-55
2024/02/06 07:58:07;;;;;;;6.97;4.57;;;9.60;99.90;;;;;;5069016;28;20104;-54
2024/02/06 08:00:32;;;;;;;10.55;5.45;;;9.60;99.90;;;;;;5064317;28;20509;-54
2024/02/06 08:02:58;;;;;;;11.02;3.95;;;9.50;99.90;;;;;;5065906;28;20031;-54
2024/02/06 08:05:24;;;;;;;8.38;4.57;;;9.60;99.90;;;;;;5066432;28;20157;-55
2024/02/06 08:07:50;;;;;;;6.85;4.80;;;9.50;99.90;;;;;;5070622;28;20146;-54
2024/02/06 08:10:16;;;;;;;12.68;4.80;;;9.60;99.90;;;;;;5068341;28;20688;-53
2024/02/06 08:12:41;;;;;;;7.72;4.00;;;9.60;99.90;;;;;;5067309;28;20090;-55
2024/02/06 08:15:08;;;;;;;5.93;4.22;;;9.60;99.90;;;;;;5069351;28;20017;-55
2024/02/06 08:17:40;;;;;;;9.13;4.32;;;9.60;99.90;;;;;;5072848;28;20029;-53
2024/02/06 08:20:09;;;;;;;6.43;4.60;;;9.60;99.90;;;;;;5068166;28;20094;-51
2024/02/06 08:22:37;;;;;;;9.50;4.72;;;9.60;99.90;;;;;;5071347;28;20382;-54
2024/02/06 08:25:06;;;;;;;11.43;4.50;;;9.70;99.90;;;;;;5067134;28;20067;-54
2024/02/06 08:27:34;;;;;;;7.38;4.15;;;9.70;99.90;;;;;;5069468;28;20024;-54
2024/02/06 08:29:59;;;;;;;5.90;3.70;;;9.70;99.90;;;;;;5068497;28;20425;-55
2024/02/06 08:32:25;;;;;;;6.47;4.22;;;9.70;99.90;;;;;;5068741;28;20016;-53
2024/02/06 08:34:51;;;;;;;6.38;3.90;;;9.70;99.90;;;;;;5069241;28;20482;-54
2024/02/06 08:37:17;;;;;;;5.38;3.72;;;9.70;99.90;;;;;;5069343;28;20035;-55
2024/02/06 08:39:43;;;;;;;5.43;3.95;;;9.80;99.90;;;;;;5074022;28;20263;-55
2024/02/06 08:42:09;;;;;;;7.15;3.97;;;9.80;99.90;;;;;;5068286;28;20059;-55
2024/02/06 08:44:35;;;;;;;9.15;4.55;;;9.80;99.90;;;;;;5068820;28;20012;-53
2024/02/06 08:47:01;;;;;;;10.43;3.53;;;9.90;99.90;;;;;;5068693;28;20027;-53
2024/02/06 08:49:26;;;;;;;7.60;3.30;;;9.80;99.90;;;;;;5068731;28;20096;-53
2024/02/06 08:51:52;;;;;;;10.98;4.70;;;9.80;99.90;;;;;;5069087;28;20024;-53
2024/02/06 08:54:20;;;;;;;4.60;3.25;;;9.80;99.90;;;;;;5067638;28;20024;-51
2024/02/06 08:56:47;;;;;;;8.95;3.25;;;9.80;99.90;;;;;;5067254;28;20024;-54
2024/02/06 08:59:13;;;;;;;7.00;3.40;;;9.80;99.90;;;;;;5068742;28;20465;-54
2024/02/06 09:01:38;;;;;;;7.18;3.45;;;9.90;99.90;;;;;;5068598;28;20028;-54
2024/02/06 09:04:06;;;;;;;9.57;3.38;;;9.90;99.90;;;;;;5066651;28;20149;-54
2024/02/06 09:06:32;;;;;;;7.38;2.97;;;9.90;99.90;;;;;;5067732;28;20031;-53
2024/02/06 09:08:58;;;;;;;7.25;4.13;;;9.90;99.90;;;;;;5066617;28;20020;-53
2024/02/06 09:11:25;;;;;;;5.15;3.30;;;9.90;99.90;;;;;;5068981;28;20498;-54
2024/02/06 09:13:52;;;;;;;5.65;3.42;;;10.00;99.90;;;;;;5068179;28;20025;-54
2024/02/06 09:16:19;;;;;;;4.88;3.10;;;10.00;99.90;;;;;;5068491;28;20023;-53
2024/02/06 09:18:44;;;;;;;5.68;3.25;;;10.10;99.90;;;;;;5067923;28;20473;-52
2024/02/06 09:21:10;;;;;;;5.45;3.33;;;10.10;99.90;;;;;;5067846;28;20016;-53
2024/02/06 09:23:36;;;;;;;5.80;3.25;;;10.10;99.90;;;;;;5069510;28;20090;-51
2024/02/06 09:26:01;;;;;;;4.25;3.20;;;10.10;99.90;;;;;;5070773;28;20501;-53
2024/02/06 09:28:27;;;;;;;9.85;4.50;;;10.10;99.90;;;;;;5067904;28;20123;-52
2024/02/06 09:30:53;;;;;;;6.18;3.42;;;10.10;99.90;;;;;;5066534;28;20060;-55
2024/02/06 09:33:18;;;;;;;3.80;3.00;;;10.00;99.90;;;;;;5067114;28;20055;-51
2024/02/06 09:35:44;;;;;;;6.13;3.53;;;10.00;99.90;;;;;;5067798;28;20485;-52
2024/02/06 09:38:10;;;;;;;7.22;3.35;;;10.10;99.90;;;;;;5067326;28;20113;-51
2024/02/06 09:40:36;;;;;;;5.88;3.28;;;10.10;99.90;;;;;;5067404;28;20021;-54
2024/02/06 09:43:04;;;;;;;6.55;3.25;;;10.10;99.90;;;;;;5067288;28;20013;-54
2024/02/06 09:45:30;;;;;;;7.28;3.30;;;10.10;99.90;;;;;;5067412;28;20477;-55
2024/02/06 09:47:56;;;;;;;6.85;3.20;;;10.10;99.90;;;;;;5068536;28;20086;-54
2024/02/06 09:50:22;;;;;;;4.93;3.20;;;10.20;99.90;;;;;;5067688;28;20016;-54
2024/02/06 09:52:50;;;;;;;5.93;3.35;;;10.20;99.90;;;;;;5065665;28;20012;-52
2024/02/06 09:55:18;;;;;;;9.90;3.70;;;10.20;99.90;;;;;;5061192;28;20047;-51
2024/02/06 09:57:46;;;;;;;7.28;3.10;;;10.30;99.90;;;;;;5067465;28;20447;-53
2024/02/06 10:00:13;;;;;;;5.70;3.60;;;10.20;99.90;;;;;;5068048;28;20141;-50
2024/02/06 10:02:42;;;;;;;5.95;3.28;;;10.30;99.90;;;;;;5065556;28;20502;-52
2024/02/06 10:05:17;;;;;;;4.90;3.63;;;10.30;99.90;;;;;;5066059;28;20333;-53
2024/02/06 10:07:46;;;;;;;5.35;3.00;;;10.30;99.90;;;;;;5068157;28;20067;-51
2024/02/06 10:10:14;;;;;;;5.07;3.07;;;10.40;99.90;;;;;;5065212;28;20013;-51
2024/02/06 10:12:42;;;;;;;7.97;3.13;;;10.40;99.90;;;;;;5066535;28;20236;-53
2024/02/06 10:15:10;;;;;;;7.05;3.40;;;10.50;99.90;;;;;;5065985;28;20101;-54
2024/02/06 10:17:39;;;;;;;5.93;3.65;;;10.50;99.90;;;;;;5067005;28;20024;-54
2024/02/06 10:20:08;;;;;;;7.93;3.75;;;10.50;99.90;;;;;;5065218;28;20470;-53
2024/02/06 10:22:33;;;;;;;8.00;3.40;;;10.50;99.90;;;;;;5066759;28;20044;-54
2024/02/06 10:25:01;;;;;;;5.68;3.05;;;10.50;99.90;;;;;;5067793;28;20363;-51
2024/02/06 10:27:26;;;;;;;6.32;3.55;;;10.50;99.90;;;;;;5068393;28;20480;-55
2024/02/06 10:30:00;;;;;;;7.75;3.83;;;10.60;99.90;;;;;;5068073;28;20102;-54
2024/02/06 10:32:35;;;;;;;10.90;4.18;;;10.50;99.90;;;;;;5067298;28;20017;-54
2024/02/06 10:35:05;;;;;;;9.18;4.07;;;10.60;99.90;;;;;;5066644;28;20024;-55
2024/02/06 10:37:35;;;;;;;12.27;4.60;;;10.50;99.90;;;;;;5066901;28;20466;-50
2024/02/06 10:40:08;;;;;;;;;;;10.60;99.90;;;;;;5067433;28;20657;-53
2024/02/06 10:42:34;;;;;;;7.75;4.18;;;10.60;99.90;;;;;;5067264;28;19905;-53
2024/02/06 10:45:00;;;;;;;7.75;4.22;;;10.60;99.90;;;;;;5066587;28;20162;-54
2024/02/06 10:47:25;;;;;;;8.77;4.30;;;10.70;99.90;;;;;;5067086;28;20191;-54
2024/02/06 10:50:05;;;;;;;8.40;4.25;;;10.70;99.90;;;;;;5067665;28;20027;-53
2024/02/06 10:52:31;;;;;;;10.90;5.10;;;10.70;99.90;;;;;;5067352;28;20017;-54
2024/02/06 10:54:57;;;;;;;10.75;4.68;;;10.70;99.90;;;;;;5067548;28;20035;-53
2024/02/06 10:57:31;;;;;;;12.73;5.20;;;10.70;99.90;;;;;;5065335;28;20021;-53
2024/02/06 11:00:17;;;;;;;9.70;4.30;;;10.70;99.90;;;;;;5066639;28;20424;-53
2024/02/06 11:02:43;;;;;;;14.23;5.00;;;10.70;99.90;;;;;;5066311;28;20029;-53
2024/02/06 11:05:29;;;;;;;11.00;4.22;;;10.70;99.90;;;;;;5066857;28;20025;-54
2024/02/06 11:08:01;;;;;;;14.57;5.10;;;10.70;99.90;;;;;;5066896;28;20091;-54
2024/02/06 11:10:51;;;;;;;10.38;5.00;;;10.70;99.90;;;;;;5066786;28;20092;-52
2024/02/06 11:13:23;;;;;;;9.27;4.33;;;10.70;99.90;;;;;;5066105;28;20082;-54
2024/02/06 11:15:51;;;;;;;14.05;4.68;;;10.70;99.90;;;;;;5065453;28;20017;-53
2024/02/06 11:18:19;;;;;;;10.02;4.53;;;10.60;99.90;;;;;;5059748;28;20012;-52
2024/02/06 11:20:50;;;;;;;9.30;3.97;;;10.60;99.90;;;;;;5066807;28;20438;-53
2024/02/06 11:23:19;;;;;;;9.50;4.70;;;10.60;99.90;;;;;;5065653;28;20223;-51
2024/02/06 11:25:47;;;;;;;12.50;4.05;;;10.60;99.90;;;;;;5066715;28;20386;-52
2024/02/06 11:28:14;;;;;;;8.30;4.15;;;10.60;99.90;;;;;;5065387;28;20012;-54
2024/02/06 11:30:41;;;;;;;18.40;4.40;;;10.60;99.90;;;;;;5064828;28;20017;-53
2024/02/06 11:33:14;;;;;;;7.28;3.95;;;10.60;99.90;;;;;;5066584;28;20099;-54
2024/02/06 11:35:40;;;;;;;7.93;3.70;;;10.60;99.90;;;;;;5066737;28;20017;-53
2024/02/06 11:38:06;;;;;;;10.57;3.63;;;10.60;99.90;;;;;;5066933;28;20044;-53
2024/02/06 11:40:32;;;;;;;9.50;3.85;;;10.60;99.90;;;;;;5066442;28;20020;-54
2024/02/06 11:43:02;;;;;;;13.30;4.20;;;10.60;99.90;;;;;;5068606;28;20549;-52
2024/02/06 11:45:29;;;;;;;13.45;4.00;;;10.60;99.90;;;;;;5070707;28;20008;-51
2024/02/06 11:47:56;;;;;;;10.90;3.00;;;10.70;99.90;;;;;;5070563;28;20036;-50
2024/02/06 11:50:43;;;;;;;9.52;3.65;;;10.70;99.90;;;;;;5070244;28;20367;-54
2024/02/06 11:53:13;;;;;;;9.20;3.33;;;10.60;99.90;;;;;;5069514;28;20029;-50
2024/02/06 11:55:41;;;;;;;13.60;3.65;;;10.60;99.90;;;;;;5070141;28;20017;-53
2024/02/06 11:58:07;;;;;;;12.52;3.17;;;10.60;99.90;;;;;;5069746;28;20028;-54
2024/02/06 12:00:33;;;;;;;6.53;3.75;;;10.60;99.90;;;;;;5069854;28;20516;-52
2024/02/06 12:02:58;;;;;;;6.47;3.10;;;10.50;99.90;;;;;;5069471;28;20108;-51
2024/02/06 12:05:25;;;;;;;10.73;4.00;;;10.50;99.90;;;;;;5069980;28;20162;-51
2024/02/06 12:07:58;;;;;;;9.85;3.67;;;10.50;99.90;;;;;;5069507;28;20027;-54
2024/02/06 12:10:29;;;;;;;14.05;3.67;;;10.40;99.90;;;;;;5069825;28;20190;-53
2024/02/06 12:13:03;;;;;;;6.05;3.58;;;10.40;99.90;;;;;;5069439;28;20243;-54
2024/02/06 12:15:36;;;;;;;12.07;3.55;;;10.40;99.90;;;;;;5068365;28;20098;-56
2024/02/06 12:18:06;;;;;;;11.05;4.47;;;10.40;99.90;;;;;;5069796;28;20502;-54
2024/02/06 12:20:35;;;;;;;;;;;10.40;99.90;;;;;;5070331;28;20070;-54
2024/02/06 12:23:06;;;;;;;9.70;4.32;;;10.40;99.90;;;;;;5069228;28;19927;-54
2024/02/06 12:25:41;;;;;;;14.43;4.43;;;10.40;99.90;;;;;;5075800;28;20480;-54
2024/02/06 12:28:15;;;;;;;12.57;4.40;;;10.30;99.90;;;;;;5079304;28;20028;-54
2024/02/06 12:30:42;;;;;;;10.90;4.50;;;10.30;99.90;;;;;;5068627;28;20024;-53
2024/02/06 12:33:08;;;;;;;7.60;3.70;;;10.30;99.90;;;;;;5067427;28;20115;-54
2024/02/06 12:35:37;;;;;;;13.13;4.85;;;10.30;99.90;;;;;;5069806;28;20017;-54
2024/02/06 12:38:03;;;;;;;5.75;3.53;;;10.40;99.90;;;;;;5070816;28;20111;-54
2024/02/06 12:40:34;;;;;;;7.63;3.50;;;10.50;99.90;;;;;;5080816;28;20492;-54
2024/02/06 12:43:02;;;;;;;;;;;10.50;99.90;;;;;;5080611;28;20056;-52
2024/02/06 12:45:29;;;;;;;10.88;4.22;;;10.50;99.90;;;;;;5074434;28;20001;-52